Date,TemperatureHighF,TemperatureAvgF,TemperatureLowF,DewpointHighF,DewpointAvgF,DewpointLowF,HumidityHigh,HumidityAvg,HumidityLow,PressureMaxIn,PressureMinIn,WindSpeedMaxMPH,WindSpeedAvgMPH,GustSpeedMaxMPH,PrecipitationSumIn
2013-1-1,55.6,44.2,38.1,39.2,34.7,31.3,80,70,40,30.08,29.95,15,1,15,0.00
2013-1-2,54.0,42.5,33.6,41.0,34.6,28.6,85,74,58,30.05,29.96,8,1,8,0.00
2013-1-3,59.4,43.7,33.8,42.0,34.5,28.3,81,71,50,30.08,29.97,6,0,6,0.00
2013-1-4,58.3,43.6,34.3,41.2,34.4,28.4,80,70,52,30.12,30.02,8,0,8,0.00
2013-1-5,64.9,50.9,37.4,39.7,34.5,28.1,80,56,33,30.07,29.88,6,0,6,0.00
2013-1-6,56.8,48.4,43.5,45.5,40.4,30.6,87,75,47,29.97,29.87,13,2,13,0.21
2013-1-7,55.4,45.9,40.3,44.4,38.8,33.9,88,77,59,30.09,29.94,7,1,7,0.00
2013-1-8,58.3,45.9,37.0,44.0,37.6,32.2,83,73,57,30.04,29.97,8,1,8,0.00
2013-1-9,65.3,50.5,39.9,49.3,42.0,34.8,84,73,55,30.01,29.75,17,1,18,0.00
2013-1-10,50.4,42.0,35.2,43.6,35.0,29.7,86,77,59,30.14,29.98,23,2,23,0.08
2013-1-11,46.4,39.6,34.9,34.4,31.2,28.9,83,72,56,30.21,30.09,10,1,10,0.00
2013-1-12,48.4,38.5,32.7,33.5,28.5,25.5,78,68,49,30.22,30.11,6,0,7,0.00
2013-1-13,48.9,38.2,30.0,34.3,27.9,23.0,77,67,51,30.23,30.10,7,1,8,0.00
2013-1-14,51.6,38.6,28.8,26.4,22.3,16.7,71,53,34,30.37,30.18,6,1,8,0.00
2013-1-15,56.1,40.8,29.7,31.2,25.5,20.6,71,56,37,30.45,30.37,9,1,10,0.00
2013-1-16,51.8,42.1,36.0,32.3,29.6,25.3,68,61,46,30.39,30.25,2,0,2,0.00
2013-1-17,67.8,47.9,34.0,39.2,32.8,26.7,77,58,31,30.26,30.14,5,0,6,0.00
2013-1-18,67.8,49.6,35.4,43.0,35.1,27.9,75,59,38,30.21,30.11,6,0,6,0.00
2013-1-19,67.3,46.6,35.4,43.8,34.7,28.5,78,65,39,30.26,30.14,6,0,8,0.00
2013-1-20,65.5,48.6,36.3,44.5,36.5,29.4,78,64,43,30.24,30.11,6,0,7,0.00
2013-1-21,69.6,52.0,36.7,44.9,37.7,29.5,76,60,39,30.18,30.10,7,1,7,0.00
2013-1-22,71.2,52.8,39.9,43.8,36.9,31.6,77,58,32,30.13,30.01,7,0,8,0.00
2013-1-23,63.3,55.7,48.0,44.4,39.6,35.6,65,55,39,30.06,29.98,10,1,12,0.00
2013-1-24,60.6,55.3,49.8,53.2,48.8,43.2,87,79,61,30.17,30.01,10,1,10,0.16
2013-1-25,56.3,54.1,52.9,52.4,50.8,49.9,90,89,86,30.17,30.02,5,0,5,0.08
2013-1-26,58.8,54.3,50.5,55.6,51.2,47.0,92,89,85,30.03,29.94,6,0,6,0.29
2013-1-27,51.6,46.8,40.6,48.7,39.2,34.7,90,75,62,30.11,29.96,24,2,24,0.06
2013-1-28,54.0,43.3,37.2,40.6,35.1,31.9,85,74,53,30.24,30.10,9,0,9,0.00
2013-1-29,55.6,46.2,37.4,40.9,36.2,31.2,80,69,55,30.31,30.23,6,0,6,0.00
2013-1-30,63.3,48.7,37.2,46.0,38.4,31.6,81,68,51,30.34,30.25,8,0,8,0.00
2013-1-31,67.6,52.4,39.7,48.1,41.4,34.4,83,68,48,30.27,30.16,6,0,6,0.00
2013-2-1,68.0,53.7,42.4,48.9,42.8,36.7,81,68,50,30.21,30.11,6,0,6,0.00
2013-2-2,67.1,57.1,48.0,50.4,46.7,41.1,81,69,54,30.24,30.17,7,0,7,0.00
2013-2-3,66.0,55.7,47.8,52.1,46.8,42.3,86,73,56,30.21,30.08,6,0,6,0.00
2013-2-4,66.9,55.7,45.7,51.8,46.2,39.9,83,71,57,30.16,30.03,11,1,11,0.00
2013-2-5,70.0,55.8,45.1,50.0,45.0,39.0,80,68,45,30.08,29.95,15,2,15,0.00
2013-2-6,62.8,52.3,45.0,45.0,41.7,36.5,81,68,50,30.19,30.08,8,1,8,0.00
2013-2-7,55.0,46.4,38.5,44.4,38.5,32.2,81,74,63,30.14,29.96,12,1,14,0.00
2013-2-8,52.3,45.0,41.5,42.3,38.0,35.3,85,77,64,29.97,29.86,17,2,17,0.18
2013-2-9,41.7,41.6,41.5,37.2,37.0,36.7,84,84,83,29.96,29.96,2,0,2,0.00
2013-2-18,49.8,48.6,47.5,38.2,37.6,36.9,67,66,63,29.95,29.93,11,4,11,0.00
2013-2-19,56.3,48.1,36.5,41.8,37.5,31.2,82,67,52,29.94,29.69,18,2,20,0.39
2013-2-20,49.3,41.9,37.0,37.3,34.2,31.2,85,75,60,30.04,29.75,10,1,10,0.00
2013-2-21,57.4,46.7,38.8,40.2,35.4,31.6,78,66,47,30.16,29.99,12,1,12,0.00
2013-2-22,62.6,49.8,38.3,40.8,35.3,30.4,76,59,40,30.23,30.14,8,1,8,0.00
2013-2-23,62.2,51.8,40.1,41.8,37.0,31.8,73,58,45,30.20,30.04,15,3,15,0.00
2013-2-24,62.8,50.1,38.8,37.7,32.0,28.5,67,51,32,30.24,30.12,11,1,11,0.00
2013-2-25,67.5,52.0,39.7,35.9,31.5,26.7,63,47,29,30.26,30.09,9,1,9,0.00
2013-2-26,66.4,51.7,40.8,42.6,34.6,29.5,66,53,34,30.19,30.09,10,2,10,0.00
2013-2-27,71.8,56.2,41.0,38.5,33.7,29.5,66,45,24,30.32,30.19,9,1,10,0.00
2013-2-28,73.9,58.4,46.6,39.4,33.8,27.2,51,41,28,30.41,30.31,10,2,10,0.00
2013-3-1,76.8,60.3,46.0,46.0,38.3,32.0,60,45,30,30.40,30.21,8,1,8,0.00
2013-3-2,81.5,63.3,47.1,47.3,40.5,31.0,65,45,24,30.27,30.04,15,1,15,0.00
2013-3-3,74.3,63.3,54.9,43.9,37.5,28.3,54,39,28,30.10,29.95,15,2,16,0.00
2013-3-4,72.0,60.9,49.6,48.3,43.9,40.1,72,55,40,30.11,30.01,10,1,10,0.00
2013-3-5,77.2,60.4,47.1,48.6,41.9,37.1,73,53,31,30.05,29.87,20,3,20,0.00
2013-3-6,65.1,55.6,46.2,45.3,41.3,36.2,71,59,46,30.07,29.97,19,3,22,0.02
2013-3-7,62.8,54.1,48.2,47.0,42.1,37.4,76,65,46,29.98,29.78,16,2,16,0.00
2013-3-8,50.7,45.5,41.7,42.1,39.2,36.3,83,79,65,30.04,29.77,21,1,21,0.69
2013-3-9,55.0,47.1,43.3,45.2,40.5,37.3,85,78,66,30.30,30.04,6,1,6,0.03
2013-3-10,69.8,56.4,43.2,47.7,41.8,35.9,78,60,42,30.32,30.22,9,2,9,0.00
2013-3-11,72.3,57.3,44.8,48.5,42.6,36.1,73,60,42,30.24,30.09,10,1,10,0.00
2013-3-12,79.0,62.2,47.3,54.2,47.0,39.4,75,59,40,30.14,30.04,8,1,9,0.00
2013-3-13,84.6,67.2,50.2,56.8,50.0,40.6,73,56,36,30.17,30.05,9,1,10,0.00
2013-3-14,88.5,69.9,54.1,57.1,50.3,42.8,67,52,33,30.10,30.03,10,1,11,0.00
2013-3-15,81.3,67.5,57.0,55.8,51.4,47.4,79,58,37,30.10,29.98,11,1,11,0.00
2013-3-16,77.9,64.7,52.7,53.5,49.6,45.5,79,60,39,30.06,29.95,10,1,11,0.00
2013-3-17,75.6,62.0,49.8,49.2,44.6,41.8,75,55,33,30.11,29.98,10,1,11,0.00
2013-3-18,75.9,62.2,48.7,45.3,41.3,38.0,67,48,31,30.10,29.99,8,1,8,0.00
2013-3-19,79.5,65.2,50.5,46.9,42.2,37.6,63,45,28,30.11,30.01,13,1,16,0.00
2013-3-20,71.2,62.9,53.4,50.4,47.1,42.4,71,57,46,30.10,30.02,15,2,16,0.00
2013-3-21,62.4,56.7,51.6,51.3,47.8,44.0,83,72,60,30.04,29.93,8,1,9,0.00
2013-3-22,69.4,56.5,45.1,44.0,40.2,33.5,77,57,35,30.05,29.95,12,2,12,0.00
2013-3-23,73.2,57.6,43.5,37.5,33.8,29.4,61,43,25,30.12,30.00,10,1,11,0.00
2013-3-24,78.4,61.3,47.1,44.5,37.5,30.6,56,43,28,30.09,29.93,9,1,10,0.00
2013-3-25,79.5,63.6,50.7,45.7,40.7,35.9,59,45,28,29.99,29.87,6,0,6,0.00
2013-3-26,78.6,63.5,49.1,48.5,43.0,37.7,67,49,31,29.97,29.86,10,1,10,0.00
2013-3-27,80.8,64.3,52.7,49.9,44.6,40.3,66,51,30,30.00,29.89,13,2,13,0.00
2013-3-28,78.6,63.6,53.4,54.0,48.8,44.2,73,60,41,30.07,29.97,9,1,9,0.00
2013-3-29,85.1,69.0,52.9,54.8,49.0,44.1,73,51,32,30.09,29.96,10,1,11,0.00
2013-3-30,88.0,70.8,56.5,54.0,48.4,45.0,70,48,26,30.05,29.90,18,2,20,0.00
2013-3-31,70.0,62.4,57.2,54.8,51.2,46.0,84,67,50,30.08,30.00,16,2,18,0.22
2013-4-1,75.4,61.9,50.9,52.1,47.4,44.0,83,61,38,30.14,30.02,12,2,12,0.00
2013-4-2,76.3,61.2,51.3,54.5,47.0,43.7,80,62,38,30.14,30.03,10,1,11,0.00
2013-4-3,82.6,68.0,52.3,54.0,48.7,42.8,71,52,36,30.11,29.96,11,1,11,0.00
2013-4-4,80.4,67.6,58.8,55.7,49.5,39.7,67,53,38,30.12,29.97,15,2,15,0.00
2013-4-5,72.9,61.9,56.1,54.2,51.0,47.9,82,68,49,30.14,30.04,10,2,11,0.00
2013-4-6,76.5,62.0,52.0,53.2,47.7,44.3,81,62,35,30.18,30.04,12,1,12,0.00
2013-4-7,77.7,64.7,53.2,52.7,47.9,43.0,79,57,33,30.11,29.82,10,1,11,0.00
2013-4-8,63.1,55.0,48.6,46.1,41.0,33.3,79,60,48,29.88,29.73,22,4,22,0.04
2013-4-9,74.1,57.7,44.2,42.3,37.0,32.9,70,49,26,30.07,29.87,9,2,10,0.00
2013-4-10,82.8,66.8,51.6,42.9,36.7,32.5,48,35,21,30.16,30.01,8,1,8,0.00
2013-4-11,83.7,67.1,55.8,49.0,42.0,35.0,54,41,29,30.03,29.77,13,1,14,0.00
2013-4-12,86.4,68.4,55.2,54.4,47.9,44.2,68,50,30,29.91,29.76,10,1,10,0.00
2013-4-13,87.4,73.7,56.1,51.7,46.2,41.7,66,40,24,29.86,29.70,13,2,13,0.00
2013-4-14,79.5,66.8,54.7,49.9,44.3,36.5,67,46,31,29.87,29.73,14,2,16,0.00
2013-4-15,73.9,61.4,50.7,46.9,39.8,31.2,67,47,29,29.88,29.73,26,4,26,0.00
2013-4-16,69.4,54.6,45.3,38.4,32.3,26.5,54,44,29,30.01,29.88,18,2,20,0.00
2013-4-17,73.0,55.8,43.0,37.9,30.7,27.1,55,40,21,30.20,30.01,11,2,13,0.00
2013-4-18,81.5,63.6,48.6,37.3,31.5,27.2,46,32,19,30.24,30.14,13,1,13,0.00
2013-4-19,83.8,67.3,52.7,40.3,34.4,28.3,42,31,19,30.22,30.01,14,2,14,0.00
2013-4-20,87.1,70.9,56.8,51.5,42.1,33.1,47,36,24,30.06,29.93,10,1,10,0.00
2013-4-21,91.2,74.3,57.4,51.2,44.6,39.6,57,37,22,30.01,29.90,10,1,10,0.00
2013-4-22,90.9,74.8,57.9,48.4,43.3,39.5,53,34,21,29.96,29.79,14,1,14,0.00
2013-4-23,93.0,74.2,60.4,47.2,43.5,40.5,52,36,19,29.92,29.78,12,1,12,0.00
2013-4-24,90.1,73.1,60.6,50.4,44.3,38.7,54,37,22,29.88,29.69,16,2,16,0.02
2013-4-25,81.1,68.1,57.0,52.1,47.8,44.0,63,49,36,30.06,29.88,14,2,14,0.00
2013-4-26,86.4,70.0,57.0,56.1,50.3,45.2,66,51,34,30.17,30.06,11,2,14,0.00
2013-5-2,91.2,78.8,71.2,36.3,29.1,18.1,24,17,12,30.06,30.04,9,2,10,0.00
2013-5-3,96.8,75.4,62.2,44.4,34.2,22.5,35,23,14,30.06,29.77,11,2,11,0.00
2013-5-4,97.2,78.5,61.7,47.8,40.2,33.2,43,28,14,29.79,29.54,16,1,17,0.00
2013-5-5,76.8,67.3,59.0,48.3,42.3,37.0,50,41,33,29.82,29.62,30,6,31,0.00
2013-5-6,82.0,66.6,56.8,51.3,45.5,39.1,65,48,30,29.95,29.81,19,2,19,0.00
2013-5-7,69.4,61.4,54.7,50.4,48.1,46.0,80,62,49,30.02,29.94,17,2,17,0.02
2013-5-8,77.0,65.4,55.6,53.0,49.3,44.9,70,57,43,30.08,29.99,11,1,11,0.00
2013-5-9,81.7,68.7,60.3,56.3,51.3,47.4,66,55,40,30.10,30.02,10,1,10,0.00
2013-5-10,88.9,72.9,58.8,61.1,54.0,48.7,69,53,35,30.13,30.03,13,1,13,0.00
2013-5-11,101.1,81.4,66.0,62.4,55.6,50.8,61,44,23,30.11,29.95,14,1,14,0.00
2013-5-12,102.0,84.2,69.3,62.4,56.7,52.3,61,42,22,30.12,29.92,12,1,12,0.00
2013-5-13,100.8,84.2,68.2,59.1,53.8,51.0,57,38,21,30.04,29.87,13,1,13,0.00
2013-5-14,94.5,80.5,66.7,54.1,46.7,39.9,46,32,18,29.94,29.83,14,2,14,0.00
2013-5-15,93.6,77.1,64.2,55.1,48.6,40.9,56,39,21,30.00,29.86,11,2,15,0.00
2013-5-16,78.6,69.6,59.9,49.5,46.8,43.2,57,45,33,29.99,29.90,14,2,14,0.00
2013-5-17,82.0,69.5,59.9,52.0,47.0,40.5,60,46,30,30.00,29.90,18,2,18,0.00
2013-5-18,65.5,63.2,60.6,41.4,40.6,39.9,49,44,40,30.02,29.99,9,3,9,0.00
2013-5-19,85.8,84.3,83.1,52.0,49.7,44.3,33,30,26,29.99,29.92,5,4,8,0.00
2013-5-25,67.1,67.0,66.9,39.1,39.0,38.9,36,36,36,29.95,29.94,9,3,9,0.00
2013-5-26,83.7,70.5,57.0,50.1,44.5,39.0,52,40,30,30.07,29.95,13,2,14,0.00
2013-5-27,83.3,69.9,57.0,50.7,46.8,41.8,66,45,29,30.06,29.93,13,2,13,0.00
2013-5-28,74.5,64.6,58.8,58.5,52.5,47.4,73,65,54,29.98,29.83,16,1,16,0.00
2013-5-29,87.1,72.6,57.4,55.5,52.0,44.6,77,51,33,29.93,29.77,14,2,16,0.00
2013-5-30,88.5,74.6,58.6,54.8,49.4,43.9,63,43,29,29.93,29.84,12,1,12,0.00
2013-5-31,91.9,76.2,60.8,53.2,47.5,41.7,52,38,25,29.98,29.87,11,2,12,0.00
2013-6-1,102.2,82.9,66.7,56.8,50.2,44.6,47,34,22,29.92,29.76,13,1,13,0.00
2013-6-2,100.0,84.8,68.7,60.6,51.6,46.7,49,33,20,29.77,29.60,14,2,14,0.00
2013-6-3,97.2,82.5,70.2,57.5,51.3,46.3,48,35,25,29.78,29.67,13,2,14,0.00
2013-6-4,95.9,80.4,66.9,60.1,53.7,47.2,55,41,29,29.87,29.77,11,1,11,0.00
2013-6-5,94.3,80.4,65.7,62.6,56.9,52.0,62,46,33,29.95,29.81,10,1,10,0.00
2013-6-6,97.5,83.1,67.6,65.6,59.2,53.7,61,46,32,29.89,29.76,12,2,12,0.00
2013-6-7,102.0,84.8,71.4,66.2,60.7,55.5,58,46,29,29.83,29.71,11,1,13,0.00
2013-6-8,108.1,91.6,75.9,68.3,61.8,49.8,56,39,27,29.74,29.63,10,1,11,0.00
2013-6-9,103.8,88.5,71.8,62.4,48.8,39.1,46,27,14,29.80,29.67,12,2,14,0.00
2013-6-10,89.8,75.2,62.4,60.3,52.0,46.0,62,46,29,29.91,29.80,14,2,14,0.00
2013-6-11,95.5,79.0,64.2,61.0,54.5,47.4,61,44,30,29.95,29.81,10,1,11,0.00
2013-6-12,99.1,81.7,67.8,63.8,55.7,43.7,65,44,22,29.92,29.82,15,2,15,0.00
2013-6-13,91.2,77.3,64.2,46.9,42.6,36.4,47,31,19,30.03,29.91,13,2,13,0.02
2013-6-14,81.0,72.3,67.3,48.3,45.3,40.4,41,38,29,29.94,29.80,3,0,3,0.00
2013-6-15,98.8,80.3,64.8,50.4,43.2,33.5,48,30,12,29.91,29.80,16,2,16,0.00
2013-6-16,93.6,79.5,63.7,51.8,44.1,34.6,43,30,19,30.03,29.90,13,1,14,0.00
2013-6-17,93.2,79.4,64.0,51.7,46.5,43.4,51,33,22,30.05,29.90,12,2,12,0.00
2013-6-18,73.9,71.3,69.1,47.4,46.5,45.6,43,41,38,29.90,29.87,13,3,13,0.00
2013-6-19,69.1,64.6,60.4,45.6,43.0,40.6,50,46,42,29.96,29.90,14,4,14,0.00
2013-6-22,96.3,88.9,75.4,52.5,47.6,43.2,38,25,19,29.92,29.78,12,2,12,0.00
2013-6-23,91.2,84.5,70.9,54.0,50.6,47.6,45,32,25,29.82,29.74,12,3,13,0.00
2013-6-24,88.5,76.0,63.7,61.4,55.0,47.6,64,49,37,29.87,29.79,13,2,14,0.00
2013-6-26,93.4,86.2,79.7,64.7,62.4,60.9,56,46,38,29.98,29.91,8,1,8,0.00
2013-6-27,93.0,78.6,71.8,67.6,63.2,60.4,70,60,42,30.06,29.98,10,1,10,0.00
2013-6-28,97.5,88.9,82.9,62.6,61.5,60.3,48,41,32,29.90,29.86,3,0,5,0.00
2013-6-29,107.1,91.4,76.6,64.9,60.2,54.5,56,37,23,29.91,29.77,15,1,15,0.00
2013-6-30,107.4,88.3,77.7,63.5,59.4,54.8,51,39,24,29.83,29.70,9,1,12,0.00
2013-7-1,104.5,87.9,78.6,66.1,61.5,57.8,53,42,28,29.85,29.75,10,1,10,0.00
2013-7-2,104.4,90.9,79.9,60.1,56.3,50.7,50,33,22,29.88,29.80,12,2,14,0.00
2013-7-3,106.2,91.2,79.7,63.3,56.3,49.3,42,32,24,29.88,29.71,9,1,10,0.00
2013-7-4,108.3,94.1,78.3,67.5,62.0,56.2,53,36,25,29.77,29.64,12,1,12,0.00
2013-7-5,103.6,91.8,78.1,64.8,58.1,44.2,56,34,20,29.74,29.63,12,1,12,0.00
2013-7-6,100.0,89.5,81.5,54.2,44.2,31.7,27,21,17,29.75,29.66,8,2,9,0.00
2013-7-7,108.9,89.0,70.0,61.7,47.9,34.4,39,26,16,29.81,29.71,12,1,16,0.00
2013-7-8,107.8,87.6,69.8,58.0,44.2,32.5,38,23,14,29.92,29.80,13,1,16,0.00
2013-7-9,107.4,88.8,70.9,58.7,52.6,36.6,45,31,18,30.01,29.87,12,1,14,0.00
2013-7-10,98.2,84.9,73.2,59.5,54.9,48.5,50,37,26,29.96,29.83,7,0,7,0.00
2013-7-11,98.4,84.1,75.9,59.0,51.1,43.6,46,33,23,29.90,29.79,10,1,11,0.00
2013-7-14,97.3,90.3,83.5,46.9,42.7,38.0,21,19,18,29.85,29.81,2,0,2,0.00
2013-7-15,104.2,89.4,71.2,57.1,47.4,32.7,41,25,16,29.86,29.71,14,1,16,0.00
2013-7-16,99.1,83.3,67.1,54.9,47.0,37.4,43,29,17,29.94,29.82,10,1,10,0.00
2013-7-17,78.6,73.3,68.7,52.1,50.6,48.1,52,45,39,29.98,29.93,9,1,9,0.00
2013-7-18,97.7,83.6,68.2,58.7,53.7,48.9,52,38,24,30.03,29.87,9,1,12,0.00
2013-7-19,101.1,84.1,70.5,58.0,52.8,47.4,52,36,21,29.91,29.77,9,1,9,0.00
2013-7-20,78.6,77.1,75.6,53.6,52.5,51.3,45,43,41,29.81,29.79,0,0,0,0.00
2013-7-21,100.9,97.7,95.4,51.9,49.3,45.6,23,20,17,29.74,29.71,4,0,5,0.00
2013-7-23,86.5,84.8,83.3,59.5,58.7,57.7,44,41,38,29.93,29.90,6,1,6,0.00
2013-7-24,98.8,81.1,73.2,61.8,58.0,55.6,56,46,29,29.95,29.91,8,0,10,0.00
2013-7-26,92.5,86.9,82.0,64.3,62.3,60.3,51,44,35,30.01,29.92,7,0,7,0.00
2013-7-27,104.0,89.5,75.7,63.0,59.7,54.9,55,39,24,29.96,29.77,9,1,12,0.00
2013-7-28,105.1,88.6,73.9,61.7,56.8,52.4,54,36,19,29.83,29.71,11,1,15,0.00
2013-7-29,101.8,86.2,73.8,61.4,54.0,47.7,46,35,24,29.96,29.80,10,1,12,0.00
2013-7-30,98.8,80.1,71.2,61.3,52.9,48.0,48,40,26,30.04,29.96,10,0,10,0.00
2013-7-31,100.2,82.9,68.2,59.8,51.7,46.3,50,35,21,30.04,29.88,11,1,11,0.00
2013-8-1,95.7,81.0,66.6,55.1,48.3,41.3,59,34,19,30.02,29.87,12,1,12,0.00
2013-8-2,95.4,78.9,64.0,52.5,46.5,41.3,52,34,18,29.95,29.84,8,1,9,0.00
2013-8-3,99.7,82.3,66.6,52.3,45.2,38.2,40,29,14,29.94,29.83,10,1,10,0.00
2013-8-4,101.1,83.0,66.0,56.1,45.7,35.3,42,29,18,29.96,29.84,10,1,10,0.00
2013-8-5,99.0,81.9,67.3,56.2,48.0,36.2,46,32,21,29.97,29.84,8,1,9,0.00
2013-8-6,99.7,81.7,66.7,55.7,51.3,47.2,55,37,20,29.97,29.86,11,1,11,0.00
2013-8-8,77.5,74.9,73.6,52.4,51.2,48.6,46,44,40,29.88,29.86,7,0,7,0.00
2013-8-9,93.6,77.0,62.8,58.8,51.4,44.7,63,43,27,29.93,29.83,10,1,10,0.00
2013-8-10,93.2,78.4,64.2,59.5,52.4,47.7,62,42,28,30.01,29.90,12,1,12,0.00
2013-8-11,95.2,79.0,64.9,61.4,53.8,49.3,64,44,28,29.99,29.86,10,1,10,0.00
2013-8-12,79.2,77.9,76.8,54.7,54.0,53.3,46,44,41,29.91,29.90,0,0,0,0.00
2013-8-13,88.0,79.4,75.0,53.8,52.4,50.9,45,39,29,29.91,29.87,1,0,4,0.00
2013-8-14,101.5,83.7,68.9,58.7,52.5,47.8,53,36,20,29.95,29.81,10,1,10,0.00
2013-8-15,76.8,76.2,75.7,51.8,51.1,50.5,43,42,41,29.89,29.88,0,0,0,0.00
2013-8-17,102.4,93.0,79.7,63.4,55.3,49.8,43,29,22,29.95,29.78,10,1,10,0.00
2013-8-18,93.2,82.0,72.1,60.9,55.9,50.8,52,41,31,29.88,29.77,6,0,6,0.00
2013-8-19,109.2,88.8,77.4,64.5,59.4,54.3,51,39,23,29.85,29.73,29,2,30,0.00
2013-8-20,103.6,87.0,75.0,60.9,56.8,45.8,58,38,23,29.86,29.73,12,1,13,0.00
2013-8-21,99.9,84.1,70.2,60.9,53.4,44.6,56,36,25,29.89,29.77,10,1,10,0.00
2013-8-22,98.6,83.9,68.2,62.1,54.3,46.0,54,38,20,29.91,29.77,12,1,12,0.00
2013-8-23,95.2,80.2,67.3,59.8,53.8,48.9,55,41,28,29.88,29.74,10,1,10,0.00
2013-8-24,97.9,81.4,67.8,59.5,53.6,49.5,57,41,23,29.86,29.74,10,1,11,0.00
2013-8-25,96.3,80.0,67.3,60.9,55.0,50.2,59,44,27,29.93,29.82,9,1,9,0.00
2013-8-26,93.9,79.6,66.2,63.5,56.9,50.7,64,47,34,29.98,29.81,10,0,10,0.00
2013-8-27,98.6,83.6,69.1,64.4,58.0,40.5,65,44,23,29.88,29.72,11,1,14,0.00
2013-8-28,97.3,82.4,69.1,61.6,54.7,42.5,54,40,27,29.89,29.80,9,1,9,0.00
2013-8-29,97.3,82.9,68.7,64.4,59.2,52.5,58,46,32,30.01,29.89,8,1,8,0.00
2013-8-30,98.2,83.7,71.2,62.9,59.0,56.2,62,45,30,30.02,29.88,9,1,9,0.00
2013-8-31,99.5,85.3,75.0,64.5,59.7,56.3,56,44,26,29.95,29.82,16,1,16,0.00
2013-9-1,97.7,84.6,73.2,65.6,61.6,57.1,61,47,31,29.92,29.80,7,0,7,0.00
2013-9-2,96.6,83.7,72.3,66.2,63.1,61.0,71,51,34,29.93,29.80,8,0,8,0.00
2013-9-3,93.4,82.0,72.1,65.1,61.7,58.7,66,51,38,29.97,29.86,8,0,9,0.00
2013-9-4,93.6,80.6,68.2,62.4,59.1,55.5,66,50,34,29.99,29.87,5,0,6,0.00
2013-9-5,94.3,80.3,67.8,61.4,58.6,55.3,67,49,32,29.98,29.86,9,0,9,0.00
2013-9-6,94.5,79.6,65.8,61.6,56.9,51.6,65,47,30,29.97,29.82,10,1,10,0.00
2013-9-7,103.3,84.7,68.9,63.6,53.9,42.8,67,39,17,29.89,29.76,8,0,9,0.00
2013-9-8,100.2,84.4,70.3,59.0,50.2,40.4,50,32,22,29.86,29.71,10,1,10,0.00
2013-9-9,98.4,84.0,70.9,59.7,53.4,49.9,50,37,21,29.80,29.67,6,1,8,0.00
2013-9-10,99.7,83.7,70.0,57.8,52.1,47.3,55,35,23,29.85,29.71,9,1,9,0.00
2013-9-11,93.4,78.7,67.3,59.7,52.3,46.8,59,41,28,29.96,29.84,10,0,10,0.00
2013-9-12,91.0,77.1,65.1,61.8,55.3,50.9,62,48,35,29.97,29.83,8,1,8,0.00
2013-9-13,94.8,80.0,67.5,61.1,56.2,53.0,63,46,32,29.87,29.70,9,0,9,0.00
2013-9-14,97.0,82.4,69.8,62.1,58.1,53.6,59,45,31,29.77,29.65,7,0,9,0.00
2013-9-15,94.1,80.4,68.7,61.3,56.9,53.9,63,46,31,29.81,29.72,8,1,8,0.00
2013-9-16,90.7,77.1,64.9,59.6,55.4,50.3,61,48,34,29.88,29.74,9,1,9,0.00
2013-9-17,88.5,75.2,65.1,60.0,53.7,45.4,65,49,33,29.83,29.73,9,1,11,0.00
2013-9-18,84.0,70.8,59.5,55.5,49.2,45.7,63,48,34,29.91,29.78,7,0,7,0.00
2013-9-19,90.7,75.6,62.8,55.9,50.6,45.2,56,43,29,29.86,29.73,7,0,7,0.00
2013-9-20,94.5,79.0,64.8,57.4,50.1,42.8,60,38,25,29.85,29.72,12,1,13,0.00
2013-9-21,85.5,71.9,61.0,59.0,51.4,46.6,63,49,35,29.88,29.75,19,2,23,0.00
2013-9-22,74.5,65.1,57.0,52.1,48.3,45.9,73,55,41,29.97,29.86,15,1,15,0.00
2013-9-23,82.8,68.4,55.9,53.5,49.3,44.3,67,52,35,30.02,29.90,8,0,9,0.00
2013-9-24,88.7,73.4,60.6,56.0,50.4,47.5,64,46,29,29.96,29.80,7,0,8,0.00
2013-9-25,75.6,66.2,58.1,50.2,45.6,39.8,63,48,36,29.91,29.73,16,2,16,0.00
2013-9-26,72.7,62.0,53.4,44.7,40.7,37.1,61,47,32,29.95,29.76,14,2,14,0.00
2013-9-27,79.3,64.8,52.2,45.1,39.9,36.4,58,42,28,30.07,29.95,7,0,7,0.00
2013-9-28,84.0,68.0,55.2,47.0,41.2,35.3,51,39,26,30.08,29.96,6,1,8,0.00
2013-9-29,87.3,72.3,59.5,47.3,40.9,35.8,46,34,21,30.10,29.98,6,0,6,0.00
2013-9-30,82.2,68.6,56.5,57.9,48.8,37.4,66,50,41,30.08,29.91,7,1,8,0.00
2013-10-1,82.6,70.9,58.5,59.8,54.1,47.9,70,56,42,29.98,29.86,6,1,7,0.00
2013-10-2,80.8,69.1,58.6,53.5,49.8,46.6,70,52,34,29.98,29.87,10,1,10,0.00
2013-10-3,74.5,63.8,54.5,47.0,44.0,40.4,68,50,35,30.01,29.88,6,0,6,0.00
2013-10-4,80.8,66.6,52.5,42.4,38.5,27.5,57,38,22,30.09,29.95,10,1,10,0.00
2013-10-5,85.6,71.9,56.8,39.9,34.1,25.9,42,26,17,30.18,30.09,14,2,14,0.00
2013-10-6,87.1,70.8,55.6,43.5,33.2,22.6,45,26,17,30.14,29.98,9,1,9,0.00
2013-10-7,86.5,71.0,58.6,41.4,35.4,26.9,40,28,19,29.98,29.84,13,0,13,0.00
2013-10-8,83.8,69.2,56.1,42.7,37.3,33.0,46,32,21,29.88,29.70,8,1,8,0.00
2013-10-9,65.8,58.5,52.9,46.7,41.4,35.9,70,54,38,29.79,29.63,10,1,10,0.06
2013-10-10,73.2,60.1,49.6,48.2,43.2,40.4,71,55,37,29.97,29.79,8,1,8,0.00
2013-10-11,76.8,63.5,51.3,47.7,43.0,38.9,66,49,34,30.04,29.93,11,1,11,0.00
2013-10-12,78.1,64.4,52.5,49.4,43.8,40.0,63,48,32,29.99,29.86,8,1,8,0.00
2013-10-13,73.9,62.5,52.3,47.5,43.5,39.6,63,51,37,30.05,29.86,8,0,10,0.00
2013-10-14,78.6,64.7,53.2,48.7,43.3,39.0,60,47,33,30.10,29.96,11,1,13,0.00
2013-10-15,79.7,66.3,53.4,48.5,42.5,36.5,57,43,31,30.03,29.92,6,1,7,0.00
2013-10-16,84.6,67.9,53.8,42.6,37.8,32.3,53,35,20,30.10,29.99,8,1,8,0.00
2013-10-17,80.8,66.1,53.2,43.4,37.8,32.3,49,36,24,30.07,29.94,7,1,7,0.00
2013-10-18,83.5,68.0,54.9,44.6,40.1,34.2,49,37,24,30.04,29.95,7,0,7,0.00
2013-10-19,85.1,68.5,55.2,46.4,40.4,34.6,51,38,22,30.07,29.96,7,0,8,0.00
2013-10-20,83.5,68.5,58.3,46.7,40.4,32.4,49,37,27,30.01,29.89,7,1,7,0.00
2013-10-21,84.7,68.9,55.4,45.8,39.9,33.1,50,36,22,29.98,29.86,6,0,7,0.00
2013-10-22,82.8,67.2,54.0,47.6,42.3,35.3,53,42,27,30.00,29.87,7,0,7,0.00
2013-10-23,80.8,67.5,57.4,48.8,43.7,38.0,54,43,30,29.93,29.85,7,0,7,0.00
2013-10-24,82.2,68.1,57.0,48.4,42.9,35.7,54,41,28,30.05,29.91,6,0,6,0.00
2013-10-25,78.1,65.4,57.0,50.5,45.1,39.1,59,48,37,30.14,30.04,6,1,8,0.00
2013-10-26,78.1,64.6,53.4,51.0,45.6,40.3,63,51,37,30.12,30.00,5,0,6,0.00
2013-10-27,81.0,66.4,54.7,51.6,45.2,39.0,65,48,30,30.01,29.70,13,0,15,0.00
2013-10-28,62.4,56.2,52.5,47.4,42.6,39.5,73,61,49,29.89,29.74,18,2,18,0.04
2013-10-29,63.1,55.2,49.6,48.2,43.9,39.9,80,67,50,30.00,29.89,6,0,6,0.08
2013-10-30,67.3,54.8,46.2,47.6,42.0,38.4,75,63,46,30.12,30.00,12,1,12,0.00
2013-10-31,69.3,56.7,47.3,47.2,42.7,38.7,73,61,43,30.17,30.06,4,0,6,0.00
2013-11-1,74.5,59.3,47.1,49.9,44.3,38.9,75,59,41,30.14,30.00,5,0,5,0.00
2013-11-2,77.2,62.1,48.9,48.2,42.6,38.5,71,51,31,30.02,29.85,6,0,7,0.00
2013-11-3,65.3,55.9,47.8,44.7,40.2,36.8,68,56,44,30.01,29.87,9,1,11,0.00
2013-11-4,64.0,53.4,46.6,37.1,34.0,31.2,60,49,35,30.05,29.86,7,1,8,0.00
2013-11-5,68.2,55.4,45.3,40.4,34.4,31.1,60,46,32,30.22,30.04,5,0,5,0.00
2013-11-6,73.0,57.1,43.3,40.0,34.6,28.1,57,44,29,30.27,30.15,8,0,8,0.00
2013-11-7,74.8,59.1,48.9,45.6,37.6,32.5,55,46,33,30.17,30.04,6,0,8,0.00
2013-11-8,74.8,59.7,47.3,42.9,38.0,32.8,61,46,31,30.06,29.94,6,0,6,0.00
2013-11-9,77.2,60.9,48.4,45.5,38.7,34.1,60,45,28,30.02,29.94,6,0,6,0.00
2013-11-10,79.3,62.2,48.4,42.2,36.8,31.6,55,41,20,30.09,29.99,7,0,9,0.00
2013-11-11,75.4,60.2,48.6,44.7,39.0,32.8,57,47,30,30.17,30.04,7,0,7,0.00
2013-11-12,65.5,59.0,52.7,46.5,42.3,37.3,67,54,46,30.29,30.11,8,0,10,0.00
2013-11-13,71.8,58.7,48.6,47.4,41.9,37.4,67,55,40,30.22,30.06,5,0,6,0.00
2013-11-14,74.8,61.0,49.8,47.4,42.0,37.1,64,51,34,30.09,29.80,8,0,8,0.00
2013-11-15,64.6,54.8,48.4,47.1,41.5,38.0,70,61,49,29.82,29.71,8,0,8,0.00
2013-11-16,67.8,54.7,45.3,44.3,38.8,35.7,74,57,38,29.91,29.75,7,0,8,0.00
2013-11-17,66.9,55.7,46.4,45.8,40.1,35.1,68,57,42,30.07,29.91,6,0,7,0.00
2013-11-18,67.5,55.8,47.1,45.8,41.0,37.1,70,58,44,30.14,30.01,6,0,6,0.00
2013-11-19,63.3,54.3,45.5,47.4,42.8,37.7,77,66,53,30.10,29.96,6,0,6,0.00
2013-11-20,69.4,58.9,50.9,51.7,47.1,41.7,84,66,47,29.98,29.81,5,0,6,0.15
2013-11-21,57.9,54.6,50.4,52.3,49.9,45.8,88,84,78,29.93,29.83,11,1,11,0.61
2013-11-22,55.2,51.3,47.1,49.3,46.4,41.1,89,83,74,30.00,29.90,4,0,7,0.04
2013-11-23,62.6,53.3,46.0,48.9,43.9,40.5,83,71,53,30.08,29.96,11,1,12,0.00
2013-11-24,66.9,55.0,46.6,48.1,42.0,38.8,75,62,44,30.22,30.07,6,0,8,0.00
2013-11-25,64.0,52.5,45.0,46.1,41.6,37.3,77,67,52,30.30,30.22,8,0,8,0.00
2013-11-26,64.0,53.2,44.1,48.6,43.7,38.0,80,71,56,30.24,30.05,5,0,6,0.00
2013-11-27,74.5,61.2,48.0,45.7,40.6,35.2,78,50,31,30.05,29.82,26,5,30,0.00
2013-11-28,70.0,62.3,53.8,43.4,37.9,35.0,56,41,32,30.04,29.84,19,3,19,0.00
2013-11-29,66.0,55.0,47.3,47.8,42.2,37.8,73,63,47,30.21,30.04,10,1,10,0.00
2013-11-30,68.5,55.7,45.1,45.7,41.0,36.3,71,59,43,30.25,30.14,5,0,7,0.00
2013-12-1,66.7,54.3,44.1,47.0,40.9,35.8,75,61,46,30.32,30.21,8,0,8,0.00
2013-12-2,66.7,53.7,43.7,45.5,40.1,35.8,75,61,44,30.22,29.90,8,0,8,0.00
2013-12-3,64.2,51.3,43.3,47.9,40.6,32.1,76,67,54,29.91,29.71,16,2,23,0.00
2013-12-4,52.7,42.7,35.4,32.7,27.6,23.1,74,56,37,30.04,29.87,6,1,6,0.00
2013-12-5,48.9,38.0,31.1,27.8,22.9,19.9,66,55,41,30.15,30.01,7,1,9,0.00
2013-12-6,51.3,39.3,30.0,27.7,22.7,18.7,64,52,38,30.19,30.09,8,0,8,0.00
2013-12-7,49.8,42.5,35.2,39.8,28.4,20.6,78,58,45,30.17,29.92,19,2,19,0.10
2013-12-8,48.7,37.2,30.9,33.3,26.5,22.8,75,66,50,30.27,30.16,8,1,8,0.00
2013-12-9,47.7,36.3,27.1,32.0,25.9,21.1,78,67,50,30.38,30.25,7,1,7,0.00
2013-12-10,50.2,38.4,29.1,32.3,26.3,21.4,74,63,47,30.37,30.19,7,0,7,0.00
2013-12-11,58.8,42.7,31.6,36.0,29.3,24.2,75,60,38,30.22,30.15,7,0,7,0.00
2013-12-12,58.8,45.0,34.3,36.8,30.9,25.8,72,59,42,30.24,30.14,6,0,8,0.00
2013-12-13,56.7,44.7,34.7,35.8,30.5,25.7,70,58,44,30.30,30.16,9,1,9,0.00
2013-12-14,61.7,46.3,34.5,38.7,32.2,26.3,73,59,41,30.37,30.28,6,0,7,0.00
2013-12-15,61.9,46.9,36.7,41.2,34.5,29.2,75,63,43,30.35,30.22,5,0,6,0.00
2013-12-16,60.8,48.8,39.6,40.9,36.2,31.7,76,63,47,30.25,30.14,5,0,5,0.00
2013-12-17,68.4,53.1,42.6,46.9,39.7,34.4,75,61,43,30.18,30.01,10,0,12,0.00
2013-12-18,61.3,53.7,48.2,44.3,40.9,38.6,71,62,52,30.03,29.73,12,1,12,0.00
2013-12-19,53.8,48.9,44.2,42.6,39.1,36.6,77,69,58,29.89,29.70,9,1,10,0.00
2013-12-20,51.1,44.8,39.0,38.9,31.9,27.0,77,61,42,30.01,29.88,8,1,9,0.00
2013-12-21,61.0,47.9,38.5,39.6,33.5,27.4,70,58,43,30.08,29.96,6,1,10,0.00
2013-12-22,63.9,48.6,38.1,42.5,34.5,29.7,74,60,39,30.30,30.08,5,0,6,0.00
2013-12-23,64.2,49.6,39.4,41.0,35.4,30.7,73,59,42,30.37,30.28,5,0,6,0.00
2013-12-24,63.7,49.9,40.8,41.5,36.3,32.1,72,61,44,30.32,30.20,6,1,8,0.00
2013-12-25,68.9,51.4,39.4,44.2,36.8,31.7,76,59,36,30.27,30.19,6,0,6,0.00
2013-12-26,64.6,49.7,39.2,42.3,36.2,31.2,75,61,42,30.28,30.16,6,0,6,0.00
2013-12-27,66.2,50.8,39.0,44.0,36.8,30.4,73,60,43,30.23,30.08,5,0,7,0.00
2013-12-28,61.7,49.8,41.2,42.4,36.7,31.9,72,61,46,30.11,30.02,10,1,10,0.00
2013-12-29,67.3,49.8,38.8,44.0,35.0,30.1,75,59,34,30.17,30.09,9,0,9,0.00
2013-12-30,70.2,51.8,38.1,41.1,32.8,25.5,71,50,34,30.22,30.17,7,1,8,0.00
2013-12-31,64.9,51.1,41.2,36.6,30.5,23.3,59,46,33,30.23,30.12,6,1,6,0.00
2014-1-1,64.8,50.7,39.9,38.7,33.1,26.2,62,52,38,30.19,30.11,6,0,6,0.00
2014-1-2,66.2,51.3,40.8,41.4,35.7,30.9,70,56,40,30.17,30.05,7,0,7,0.00